createdAt,value
2023-05-11T00:00:18.794Z,101122.85
2023-05-11T00:00:41.298Z,101118.54
2023-05-11T00:01:05.000Z,101120.73
2023-05-11T00:01:26.765Z,101116.85
2023-05-11T00:01:48.406Z,101119.71
2023-05-11T00:02:11.335Z,101122.58
2023-05-11T00:02:33.250Z,101119.14
2023-05-11T00:02:55.447Z,101117.36
2023-05-11T00:03:17.373Z,101121.58
2023-05-11T00:03:39.441Z,101121.11
2023-05-11T00:04:01.418Z,101117.89
2023-05-11T00:04:23.561Z,101121.84
2023-05-11T00:04:45.388Z,101123.17
2023-05-11T00:05:07.508Z,101121.21
2023-05-11T00:05:29.686Z,101122.20
2023-05-11T00:05:51.882Z,101122.01
2023-05-11T00:06:13.683Z,101120.20
2023-05-11T00:06:35.656Z,101124.29
2023-05-11T00:06:57.441Z,101124.27
2023-05-11T00:07:19.632Z,101123.14
2023-05-11T00:07:41.153Z,101122.23
2023-05-11T00:08:03.120Z,101121.77
2023-05-11T00:08:24.924Z,101122.41
2023-05-11T00:08:46.769Z,101119.54
2023-05-11T00:09:09.074Z,101119.46
2023-05-11T00:09:31.076Z,101121.25
2023-05-11T00:09:52.784Z,101120.89
2023-05-11T00:10:14.435Z,101119.83
2023-05-11T00:10:36.105Z,101120.98
2023-05-11T00:11:00.159Z,101125.16
2023-05-11T00:11:23.148Z,101122.98
2023-05-11T00:11:45.956Z,101125.73
2023-05-11T00:12:09.176Z,101122.83
2023-05-11T00:12:30.865Z,101126.64
2023-05-11T00:12:52.638Z,101122.54
2023-05-11T00:13:14.748Z,101120.41
2023-05-11T00:13:36.726Z,101127.55
2023-05-11T00:13:58.608Z,101122.77
2023-05-11T00:14:20.605Z,101123.86
2023-05-11T00:14:42.378Z,101124.20
2023-05-11T00:15:04.379Z,101121.46
2023-05-11T00:15:26.375Z,101123.98
2023-05-11T00:15:48.009Z,101122.41
2023-05-11T00:16:09.975Z,101126.20
2023-05-11T00:16:32.037Z,101122.75
2023-05-11T00:16:54.109Z,101121.80
2023-05-11T00:17:16.001Z,101122.79
2023-05-11T00:17:37.712Z,101123.04
2023-05-11T00:17:59.595Z,101123.97
2023-05-11T00:18:21.363Z,101121.26
2023-05-11T00:18:43.611Z,101124.98
2023-05-11T00:19:05.743Z,101122.47
2023-05-11T00:19:27.570Z,101122.54
2023-05-11T00:19:49.527Z,101123.84
2023-05-11T00:20:11.397Z,101125.30
2023-05-11T00:20:33.386Z,101123.46
2023-05-11T00:20:56.093Z,101123.35
2023-05-11T00:21:17.770Z,101125.14
2023-05-11T00:21:39.458Z,101125.18
2023-05-11T00:22:01.103Z,101125.77
2023-05-11T00:22:22.751Z,101125.95
2023-05-11T00:22:45.027Z,101127.21
2023-05-11T00:23:06.899Z,101123.45
2023-05-11T00:23:28.800Z,101123.13
2023-05-11T00:23:50.570Z,101127.42
2023-05-11T00:24:12.210Z,101124.64
2023-05-11T00:24:33.767Z,101125.72
2023-05-11T00:24:55.617Z,101127.70
2023-05-11T00:25:17.400Z,101125.98
2023-05-11T00:25:39.192Z,101127.10
2023-05-11T00:26:01.091Z,101126.94
2023-05-11T00:26:22.950Z,101128.77
2023-05-11T00:26:44.878Z,101127.19
2023-05-11T00:27:06.627Z,101128.65
2023-05-11T00:27:28.314Z,101127.48
2023-05-11T00:27:49.921Z,101126.48
2023-05-11T00:28:11.780Z,101129.67
2023-05-11T00:28:34.183Z,101130.92
2023-05-11T00:28:55.859Z,101128.84
2023-05-11T00:29:17.539Z,101126.95
2023-05-11T00:29:39.153Z,101129.82
2023-05-11T00:30:00.816Z,101129.31
2023-05-11T00:30:22.896Z,101128.65
2023-05-11T00:30:45.537Z,101125.73
2023-05-11T00:31:07.340Z,101129.31
2023-05-11T00:31:30.508Z,101129.52
2023-05-11T00:31:52.418Z,101127.81
2023-05-11T00:32:14.271Z,101126.84
2023-05-11T00:32:36.384Z,101128.46
2023-05-11T00:32:58.195Z,101127.26
2023-05-11T00:33:20.236Z,101129.45
2023-05-11T00:33:41.938Z,101128.11
2023-05-11T00:34:03.706Z,101129.14
2023-05-11T00:34:26.123Z,101128.91
2023-05-11T00:34:48.495Z,101126.60
2023-05-11T00:35:11.334Z,101127.38
2023-05-11T00:35:33.001Z,101130.30
2023-05-11T00:35:54.598Z,101128.45
2023-05-11T00:36:16.456Z,101129.60
2023-05-11T00:37:00.968Z,101130.02
2023-05-11T00:37:46.354Z,101125.84
2023-05-11T00:38:07.964Z,101130.05
2023-05-11T00:38:29.827Z,101127.76
2023-05-11T00:38:52.257Z,101130.79
2023-05-11T00:39:14.003Z,101132.02
2023-05-11T00:39:39.774Z,101128.93
2023-05-11T00:40:02.481Z,101130.95
2023-05-11T00:40:24.996Z,101129.94
2023-05-11T00:40:47.932Z,101129.49
2023-05-11T00:41:09.578Z,101129.73
2023-05-11T00:41:31.461Z,101127.55
2023-05-11T00:41:53.274Z,101126.58
2023-05-11T00:42:15.036Z,101130.88
2023-05-11T00:42:36.752Z,101126.76
2023-05-11T00:42:58.441Z,101128.40
2023-05-11T00:43:20.524Z,101130.77
2023-05-11T00:43:42.476Z,101131.05
2023-05-11T00:44:04.775Z,101131.81
2023-05-11T00:44:26.662Z,101132.48
2023-05-11T00:44:48.542Z,101129.10
2023-05-11T00:45:10.734Z,101133.39
2023-05-11T00:45:32.650Z,101131.14
2023-05-11T00:45:54.229Z,101130.93
2023-05-11T00:46:16.108Z,101129.30
2023-05-11T00:46:37.906Z,101129.91
2023-05-11T00:46:59.740Z,101128.26
2023-05-11T00:47:21.830Z,101130.12
2023-05-11T00:47:43.528Z,101130.03
2023-05-11T00:48:05.629Z,101131.52
2023-05-11T00:48:27.935Z,101129.00
2023-05-11T00:48:49.845Z,101131.50
2023-05-11T00:49:11.794Z,101129.33
2023-05-11T00:49:33.522Z,101129.13
2023-05-11T00:49:55.371Z,101130.23
2023-05-11T00:50:18.349Z,101127.38
2023-05-11T00:50:40.364Z,101131.27
2023-05-11T00:51:01.945Z,101131.19
2023-05-11T00:51:23.974Z,101131.63
2023-05-11T00:51:45.746Z,101133.31
2023-05-11T00:52:07.808Z,101128.89
2023-05-11T00:52:29.461Z,101132.33
2023-05-11T00:52:51.482Z,101131.90
2023-05-11T00:53:13.254Z,101130.93
2023-05-11T00:53:35.499Z,101132.80
2023-05-11T00:53:57.654Z,101132.72
2023-05-11T00:54:19.643Z,101131.58
2023-05-11T00:54:42.143Z,101133.57
2023-05-11T00:55:04.336Z,101133.11
2023-05-11T00:55:26.863Z,101131.42
2023-05-11T00:55:49.132Z,101134.27
2023-05-11T00:56:10.917Z,101130.16
2023-05-11T00:56:32.831Z,101132.42
2023-05-11T00:56:54.488Z,101130.90
2023-05-11T00:57:16.479Z,101135.65
2023-05-11T00:57:38.212Z,101136.20
2023-05-11T00:58:00.797Z,101134.37
2023-05-11T00:58:22.847Z,101139.04
2023-05-11T00:58:45.394Z,101133.70
2023-05-11T00:59:07.547Z,101130.48
2023-05-11T00:59:29.738Z,101128.45
2023-05-11T00:59:51.427Z,101133.09
2023-05-11T01:00:13.337Z,101134.55
2023-05-11T01:00:36.257Z,101132.69
2023-05-11T01:00:58.225Z,101134.22
2023-05-11T01:01:20.153Z,101131.66
2023-05-11T01:01:42.021Z,101131.64
2023-05-11T01:02:03.816Z,101132.66
2023-05-11T01:02:26.169Z,101130.59
2023-05-11T01:02:48.882Z,101132.91
2023-05-11T01:03:12.594Z,101134.33
2023-05-11T01:03:34.303Z,101130.15
2023-05-11T01:03:57.405Z,101131.94
2023-05-11T01:04:19.894Z,101128.98
2023-05-11T01:04:42.186Z,101125.73
2023-05-11T01:05:04.489Z,101128.60
2023-05-11T01:05:30.066Z,101130.25
2023-05-11T01:05:54.905Z,101129.30
2023-05-11T01:06:24.051Z,101126.20
2023-05-11T01:07:04.897Z,101127.48
2023-05-11T01:07:56.413Z,101129.21
2023-05-11T01:08:19.623Z,101127.41
2023-05-11T01:08:50.513Z,101130.84
2023-05-11T01:09:35.238Z,101131.48
2023-05-11T01:10:02.905Z,101130.39
2023-05-11T01:10:29.015Z,101129.80
2023-05-11T01:10:56.556Z,101131.48
2023-05-11T01:11:27.515Z,101131.94
2023-05-11T01:11:51.571Z,101132.41
2023-05-11T01:12:32.142Z,101129.52
2023-05-11T01:12:57.194Z,101130.92
2023-05-11T01:13:39.792Z,101129.95
2023-05-11T01:14:25.381Z,101130.94
2023-05-11T01:15:11.178Z,101129.80
2023-05-11T01:15:36.750Z,101129.34
2023-05-11T01:15:59.102Z,101130.08
2023-05-11T01:16:21.831Z,101129.77
2023-05-11T01:16:46.683Z,101131.00
2023-05-11T01:17:10.638Z,101129.88
2023-05-11T01:17:34.701Z,101130.42
2023-05-11T01:18:15.579Z,101125.39
2023-05-11T01:18:38.746Z,101129.09
2023-05-11T01:19:12.080Z,101125.27
2023-05-11T01:19:44.373Z,101128.20
2023-05-11T01:20:06.956Z,101128.45
2023-05-11T01:20:29.050Z,101128.66
2023-05-11T01:20:52.685Z,101123.52
2023-05-11T01:21:15.408Z,101126.86
2023-05-11T01:21:39.615Z,101130.76
2023-05-11T01:22:02.972Z,101127.67
2023-05-11T01:22:30.754Z,101129.32
2023-05-11T01:22:52.565Z,101125.86
2023-05-11T01:23:33.552Z,101127.88
2023-05-11T01:24:13.869Z,101129.86
2023-05-11T01:25:08.165Z,101128.07
2023-05-11T01:25:33.544Z,101129.70
2023-05-11T01:25:56.653Z,101126.75
2023-05-11T01:26:37.067Z,101127.83
2023-05-11T01:27:17.134Z,101124.80
2023-05-11T01:27:54.659Z,101130.10
2023-05-11T01:28:31.806Z,101128.05
2023-05-11T01:29:05.842Z,101130.77
2023-05-11T01:29:27.731Z,101132.35
2023-05-11T01:29:49.320Z,101127.86
2023-05-11T01:30:29.910Z,101131.70
2023-05-11T01:30:53.917Z,101132.46
2023-05-11T01:31:15.829Z,101130.54
2023-05-11T01:31:39.912Z,101131.27
2023-05-11T01:32:02.197Z,101133.00
2023-05-11T01:32:27.149Z,101130.58
2023-05-11T01:32:48.869Z,101129.38
2023-05-11T01:33:11.703Z,101130.76
2023-05-11T01:33:33.699Z,101130.92
2023-05-11T01:33:57.669Z,101133.42
2023-05-11T01:34:21.155Z,101132.17
2023-05-11T01:34:42.784Z,101130.77
2023-05-11T01:35:13.217Z,101131.63
2023-05-11T01:35:35.612Z,101133.20
2023-05-11T01:36:00.788Z,101131.81
2023-05-11T01:36:24.664Z,101130.98
2023-05-11T01:36:51.290Z,101133.23
2023-05-11T01:37:14.847Z,101135.17
2023-05-11T01:37:36.609Z,101132.50
2023-05-11T01:37:58.450Z,101134.09
2023-05-11T01:38:21.041Z,101130.07
2023-05-11T01:38:46.155Z,101130.64
2023-05-11T01:39:08.493Z,101127.83
2023-05-11T01:39:32.578Z,101128.02
2023-05-11T01:39:54.869Z,101129.37
2023-05-11T01:40:17.596Z,101124.64
2023-05-11T01:40:40.921Z,101129.52
2023-05-11T01:41:04.239Z,101127.74
2023-05-11T01:41:26.309Z,101130.30
2023-05-11T01:41:50.754Z,101132.54
2023-05-11T01:42:12.542Z,101133.05
2023-05-11T01:42:41.923Z,101132.69
2023-05-11T01:43:04.390Z,101133.19
2023-05-11T01:43:27.350Z,101134.18
2023-05-11T01:43:52.559Z,101135.21
2023-05-11T01:44:14.240Z,101134.92
2023-05-11T01:44:39.036Z,101133.60
2023-05-11T01:45:02.783Z,101131.17
2023-05-11T01:45:26.619Z,101131.35
2023-05-11T01:45:51.167Z,101129.25
2023-05-11T01:46:13.366Z,101127.14
2023-05-11T01:46:35.630Z,101125.92
2023-05-11T01:46:58.442Z,101127.95
2023-05-11T01:47:23.684Z,101130.05
2023-05-11T01:47:46.268Z,101127.42
2023-05-11T01:48:11.453Z,101127.77
2023-05-11T01:48:33.405Z,101127.02
2023-05-11T01:48:55.804Z,101123.71
2023-05-11T01:49:17.541Z,101127.21
2023-05-11T01:49:41.312Z,101125.88
2023-05-11T01:50:03.413Z,101125.95
2023-05-11T01:50:25.499Z,101122.73
2023-05-11T01:50:47.401Z,101126.30
2023-05-11T01:51:09.314Z,101124.67
2023-05-11T01:51:33.618Z,101121.26
2023-05-11T01:51:55.292Z,101123.45
2023-05-11T01:52:16.975Z,101123.77
2023-05-11T01:52:39.272Z,101121.64
2023-05-11T01:53:01.499Z,101122.23
2023-05-11T01:53:23.352Z,101122.73
2023-05-11T01:53:45.049Z,101119.36
2023-05-11T01:54:07.465Z,101119.68
2023-05-11T01:54:29.728Z,101121.88
2023-05-11T01:54:51.954Z,101120.48
2023-05-11T01:55:13.772Z,101121.79
2023-05-11T01:55:35.693Z,101120.94
2023-05-11T01:55:57.888Z,101121.01
2023-05-11T01:56:19.772Z,101122.72
2023-05-11T01:56:42.282Z,101123.20
2023-05-11T01:57:04.060Z,101120.89
2023-05-11T01:57:25.745Z,101118.87
2023-05-11T01:57:48.069Z,101122.48
2023-05-11T01:58:10.129Z,101121.03
2023-05-11T01:58:33.954Z,101119.59
2023-05-11T01:58:55.852Z,101121.41
2023-05-11T01:59:18.450Z,101119.93
2023-05-11T01:59:40.108Z,101121.30
2023-05-11T02:00:02.025Z,101119.84
2023-05-11T02:00:23.989Z,101121.91
2023-05-11T02:00:47.849Z,101124.30
2023-05-11T02:01:09.711Z,101124.06
2023-05-11T02:01:31.781Z,101122.45
2023-05-11T02:01:53.904Z,101120.64
2023-05-11T02:02:16.083Z,101119.88
2023-05-11T02:02:38.098Z,101119.16
2023-05-11T02:03:00.557Z,101119.77
2023-05-11T02:03:22.736Z,101118.87
2023-05-11T02:03:44.586Z,101118.48
2023-05-11T02:04:06.349Z,101119.98
2023-05-11T02:04:28.237Z,101118.19
2023-05-11T02:04:50.012Z,101118.13
2023-05-11T02:05:12.144Z,101120.38
2023-05-11T02:05:34.509Z,101119.09
2023-05-11T02:05:56.705Z,101120.80
2023-05-11T02:06:18.598Z,101118.80
2023-05-11T02:06:40.619Z,101121.05
2023-05-11T02:07:02.282Z,101120.29
2023-05-11T02:07:23.969Z,101119.90
2023-05-11T02:07:45.626Z,101122.27
2023-05-11T02:08:07.520Z,101121.54
2023-05-11T02:08:30.568Z,101119.91
2023-05-11T02:08:52.512Z,101118.30
2023-05-11T02:09:15.651Z,101121.73
2023-05-11T02:09:37.853Z,101119.44
2023-05-11T02:10:00.225Z,101118.70
2023-05-11T02:10:22.924Z,101118.46
2023-05-11T02:10:45.452Z,101120.33
2023-05-11T02:11:07.702Z,101120.83
2023-05-11T02:11:29.825Z,101120.77
2023-05-11T02:11:51.751Z,101120.58
2023-05-11T02:12:13.487Z,101120.00
2023-05-11T02:12:36.393Z,101119.42
2023-05-11T02:12:58.818Z,101119.42
2023-05-11T02:13:20.610Z,101119.73
2023-05-11T02:13:43.008Z,101123.08
2023-05-11T02:14:04.881Z,101121.80
2023-05-11T02:14:27.897Z,101119.27
2023-05-11T02:14:50.680Z,101122.94
2023-05-11T02:15:12.376Z,101122.54
2023-05-11T02:15:35.537Z,101119.48
2023-05-11T02:15:58.551Z,101121.02
2023-05-11T02:16:21.469Z,101122.56
2023-05-11T02:16:43.186Z,101122.88
2023-05-11T02:17:04.885Z,101123.36
2023-05-11T02:17:26.518Z,101122.61
2023-05-11T02:17:48.258Z,101122.21
2023-05-11T02:18:11.553Z,101124.13
2023-05-11T02:18:33.364Z,101122.34
2023-05-11T02:18:55.268Z,101121.61
2023-05-11T02:19:16.934Z,101123.13
2023-05-11T02:19:38.522Z,101120.83
2023-05-11T02:20:00.476Z,101122.03
2023-05-11T02:20:22.457Z,101121.95
2023-05-11T02:20:44.659Z,101121.76
2023-05-11T02:21:07.563Z,101121.36
2023-05-11T02:21:31.016Z,101118.86
2023-05-11T02:21:52.672Z,101120.41
2023-05-11T02:22:14.722Z,101123.17
2023-05-11T02:22:36.444Z,101119.48
2023-05-11T02:22:58.123Z,101124.68
2023-05-11T02:23:20.016Z,101121.72
2023-05-11T02:23:42.203Z,101124.69
2023-05-11T02:24:04.701Z,101124.30
2023-05-11T02:24:26.820Z,101124.11
2023-05-11T02:24:48.475Z,101125.50
2023-05-11T02:25:10.361Z,101123.71
2023-05-11T02:25:32.779Z,101126.48
2023-05-11T02:25:54.652Z,101126.49
2023-05-11T02:26:16.434Z,101125.39
2023-05-11T02:26:38.060Z,101125.38
2023-05-11T02:27:00.116Z,101122.55
2023-05-11T02:27:22.090Z,101125.16
2023-05-11T02:27:43.982Z,101125.66
2023-05-11T02:28:06.169Z,101130.02
2023-05-11T02:28:27.899Z,101125.26
2023-05-11T02:28:49.536Z,101127.86
2023-05-11T02:29:11.537Z,101126.55
2023-05-11T02:29:33.213Z,101126.48
2023-05-11T02:29:55.413Z,101126.64
2023-05-11T02:30:17.676Z,101127.90
2023-05-11T02:30:45.413Z,101125.96
2023-05-11T02:31:09.438Z,101126.50
2023-05-11T02:31:32.101Z,101125.73
2023-05-11T02:31:59.083Z,101122.53
2023-05-11T02:32:21.357Z,101123.73
2023-05-11T02:32:51.076Z,101123.66
2023-05-11T02:33:14.150Z,101125.71
2023-05-11T02:33:35.888Z,101123.82
2023-05-11T02:33:59.837Z,101121.58
2023-05-11T02:34:23.132Z,101124.33
2023-05-11T02:34:47.604Z,101123.39
2023-05-11T02:35:10.976Z,101123.03
2023-05-11T02:35:33.932Z,101124.04
2023-05-11T02:35:56.020Z,101124.02
2023-05-11T02:36:19.911Z,101122.79
2023-05-11T02:36:42.059Z,101122.74
2023-05-11T02:37:05.605Z,101124.90
2023-05-11T02:37:27.965Z,101126.13
2023-05-11T02:37:49.957Z,101126.48
2023-05-11T02:38:11.855Z,101127.68
2023-05-11T02:38:34.137Z,101128.63
2023-05-11T02:38:58.315Z,101127.67
2023-05-11T02:39:21.393Z,101128.19
2023-05-11T02:39:43.988Z,101127.10
2023-05-11T02:40:06.622Z,101130.57
2023-05-11T02:40:29.949Z,101126.55
2023-05-11T02:40:53.845Z,101128.98
2023-05-11T02:41:16.754Z,101128.93
2023-05-11T02:41:39.664Z,101129.60
2023-05-11T02:42:06.462Z,101128.38
2023-05-11T02:42:28.460Z,101131.16
2023-05-11T02:42:53.198Z,101128.49
2023-05-11T02:43:15.352Z,101128.84
2023-05-11T02:43:50.574Z,101133.75
2023-05-11T02:44:13.612Z,101127.73
2023-05-11T02:44:35.998Z,101127.52
2023-05-11T02:45:01.779Z,101130.11
2023-05-11T02:45:24.158Z,101129.61
2023-05-11T02:45:45.664Z,101127.48
2023-05-11T02:46:08.339Z,101129.73
2023-05-11T02:46:32.203Z,101128.84
2023-05-11T02:46:54.221Z,101132.04
2023-05-11T02:47:16.247Z,101129.86
2023-05-11T02:47:47.563Z,101129.84
2023-05-11T02:48:18.234Z,101129.11
2023-05-11T02:48:42.304Z,101129.80
2023-05-11T02:49:05.273Z,101128.87
2023-05-11T02:49:27.166Z,101130.48
2023-05-11T02:49:53.138Z,101130.27
2023-05-11T02:50:15.332Z,101130.05
2023-05-11T02:50:37.728Z,101127.27
2023-05-11T02:50:59.834Z,101130.23
2023-05-11T02:51:23.856Z,101126.58
2023-05-11T02:51:45.845Z,101125.69
2023-05-11T02:52:07.525Z,101126.42
2023-05-11T02:52:32.996Z,101127.14
2023-05-11T02:52:55.415Z,101127.16
2023-05-11T02:53:17.383Z,101125.88
2023-05-11T02:53:40.091Z,101128.46
2023-05-11T02:54:02.482Z,101125.20
2023-05-11T02:54:25.651Z,101122.03
2023-05-11T02:54:49.017Z,101128.23
2023-05-11T02:55:10.698Z,101127.50
2023-05-11T02:55:32.441Z,101125.02
2023-05-11T02:55:54.306Z,101125.41
2023-05-11T02:56:16.269Z,101125.36
2023-05-11T02:56:38.349Z,101125.19
2023-05-11T02:57:03.312Z,101127.83
2023-05-11T02:57:25.604Z,101129.40
2023-05-11T02:57:47.409Z,101129.54
2023-05-11T02:58:09.399Z,101125.30
2023-05-11T02:58:32.620Z,101130.30
2023-05-11T02:59:05.731Z,101125.93
2023-05-11T02:59:27.540Z,101127.18
2023-05-11T02:59:49.222Z,101127.20
2023-05-11T03:00:11.186Z,101123.00
2023-05-11T03:00:33.164Z,101119.80
2023-05-11T03:00:55.780Z,101118.76
2023-05-11T03:01:17.849Z,101125.09
2023-05-11T03:01:40.027Z,101116.66
2023-05-11T03:02:02.038Z,101116.52
2023-05-11T03:02:24.540Z,101119.42
2023-05-11T03:02:46.435Z,101115.33
2023-05-11T03:03:08.947Z,101117.39
2023-05-11T03:03:31.309Z,101120.13
2023-05-11T03:03:53.466Z,101121.55
2023-05-11T03:04:15.668Z,101117.84
2023-05-11T03:04:40.386Z,101119.92
2023-05-11T03:05:02.200Z,101121.33
2023-05-11T03:05:24.550Z,101120.77
2023-05-11T03:05:46.443Z,101120.95
2023-05-11T03:06:08.469Z,101121.17
2023-05-11T03:06:31.030Z,101123.26
2023-05-11T03:06:52.758Z,101123.77
2023-05-11T03:07:14.496Z,101119.42
2023-05-11T03:07:36.393Z,101121.27
2023-05-11T03:07:58.428Z,101122.84
2023-05-11T03:08:20.765Z,101120.20
2023-05-11T03:08:42.457Z,101125.09
2023-05-11T03:09:04.492Z,101124.88
2023-05-11T03:09:26.737Z,101122.60
2023-05-11T03:09:48.520Z,101125.35
2023-05-11T03:10:10.974Z,101123.40
2023-05-11T03:10:34.498Z,101123.52
2023-05-11T03:10:57.150Z,101126.70
2023-05-11T03:11:18.939Z,101126.45
2023-05-11T03:11:42.060Z,101125.17
2023-05-11T03:12:03.938Z,101121.46
2023-05-11T03:12:31.034Z,101126.55
2023-05-11T03:12:53.741Z,101125.59
2023-05-11T03:13:16.248Z,101126.79
2023-05-11T03:13:38.234Z,101122.17
2023-05-11T03:14:00.831Z,101119.10
2023-05-11T03:14:22.515Z,101120.44
2023-05-11T03:14:45.439Z,101120.38
2023-05-11T03:15:08.029Z,101121.61
2023-05-11T03:15:30.119Z,101118.90
2023-05-11T03:15:52.316Z,101121.14
2023-05-11T03:16:14.646Z,101120.20
2023-05-11T03:16:36.944Z,101120.65
2023-05-11T03:16:59.553Z,101117.80
2023-05-11T03:17:21.361Z,101121.66
2023-05-11T03:17:43.143Z,101120.22
2023-05-11T03:18:06.426Z,101122.59
2023-05-11T03:18:28.514Z,101120.93
2023-05-11T03:18:50.563Z,101119.88
2023-05-11T03:19:12.436Z,101124.72
2023-05-11T03:19:34.298Z,101121.30
2023-05-11T03:19:56.080Z,101122.17
2023-05-11T03:20:18.114Z,101120.70
2023-05-11T03:20:40.119Z,101124.51
2023-05-11T03:21:02.000Z,101122.89
2023-05-11T03:21:23.889Z,101121.67
2023-05-11T03:21:45.907Z,101122.13
2023-05-11T03:22:07.690Z,101120.88
2023-05-11T03:22:29.398Z,101120.80
2023-05-11T03:22:51.443Z,101118.69
2023-05-11T03:23:13.440Z,101120.60
2023-05-11T03:23:35.821Z,101117.08
2023-05-11T03:23:57.615Z,101119.63
2023-05-11T03:24:19.165Z,101119.07
2023-05-11T03:24:40.800Z,101122.17
2023-05-11T03:25:02.578Z,101120.02
2023-05-11T03:25:26.588Z,101120.34
2023-05-11T03:25:48.266Z,101120.48
2023-05-11T03:26:10.589Z,101120.80
2023-05-11T03:26:33.165Z,101119.33
2023-05-11T03:26:55.664Z,101121.38
2023-05-11T03:27:17.999Z,101122.57
2023-05-11T03:27:40.669Z,101120.24
2023-05-11T03:28:03.322Z,101120.90
2023-05-11T03:28:25.369Z,101120.86
2023-05-11T03:28:53.080Z,101120.23
2023-05-11T03:29:15.386Z,101120.34
2023-05-11T03:29:38.194Z,101121.52
2023-05-11T03:29:59.774Z,101121.30
2023-05-11T03:30:21.545Z,101124.21
2023-05-11T03:30:44.522Z,101125.91
2023-05-11T03:31:06.279Z,101127.23
2023-05-11T03:31:29.517Z,101121.03
2023-05-11T03:31:54.569Z,101123.05
2023-05-11T03:32:16.582Z,101124.55
2023-05-11T03:32:38.611Z,101125.86
2023-05-11T03:33:01.793Z,101123.69
2023-05-11T03:33:24.105Z,101126.10
2023-05-11T03:33:46.097Z,101127.60
2023-05-11T03:34:07.796Z,101125.74
2023-05-11T03:34:32.263Z,101125.64
2023-05-11T03:34:54.108Z,101128.08
2023-05-11T03:35:15.996Z,101128.36
2023-05-11T03:35:38.011Z,101125.61
2023-05-11T03:35:59.770Z,101131.55
2023-05-11T03:36:22.166Z,101131.64
2023-05-11T03:36:44.568Z,101129.98
2023-05-11T03:37:06.551Z,101130.27
2023-05-11T03:37:29.294Z,101131.27
2023-05-11T03:37:51.976Z,101129.19
2023-05-11T03:38:13.728Z,101132.77
2023-05-11T03:38:35.509Z,101132.02
2023-05-11T03:38:57.554Z,101131.77
2023-05-11T03:39:20.371Z,101131.86
2023-05-11T03:39:42.317Z,101134.23
2023-05-11T03:40:04.431Z,101130.95
2023-05-11T03:40:32.845Z,101131.23
2023-05-11T03:40:54.734Z,101133.23
2023-05-11T03:41:17.772Z,101134.92
2023-05-11T03:41:40.959Z,101133.74
2023-05-11T03:42:03.456Z,101134.65
2023-05-11T03:42:26.268Z,101134.20
2023-05-11T03:42:47.956Z,101133.19
2023-05-11T03:43:10.651Z,101132.41
2023-05-11T03:43:32.645Z,101133.85
2023-05-11T03:43:55.651Z,101135.67
2023-05-11T03:44:20.199Z,101131.82
2023-05-11T03:44:42.910Z,101129.55
2023-05-11T03:45:05.376Z,101134.46
2023-05-11T03:45:27.930Z,101133.45
2023-05-11T03:45:50.952Z,101131.55
2023-05-11T03:46:13.483Z,101132.95
2023-05-11T03:46:35.621Z,101135.25
2023-05-11T03:46:57.707Z,101132.77
2023-05-11T03:47:19.416Z,101134.69
2023-05-11T03:47:41.246Z,101133.46
2023-05-11T03:48:05.107Z,101135.24
2023-05-11T03:48:27.896Z,101133.70
2023-05-11T03:48:50.142Z,101136.85
2023-05-11T03:49:15.174Z,101136.48
2023-05-11T03:49:37.456Z,101137.34
2023-05-11T03:49:59.443Z,101140.85
2023-05-11T03:50:21.357Z,101137.86
2023-05-11T03:50:42.980Z,101139.63
2023-05-11T03:51:04.831Z,101139.45
2023-05-11T03:51:26.790Z,101139.96
2023-05-11T03:51:48.880Z,101139.24
2023-05-11T03:52:10.753Z,101139.02
2023-05-11T03:52:32.452Z,101139.48
2023-05-11T03:52:55.354Z,101135.80
2023-05-11T03:53:17.241Z,101140.89
2023-05-11T03:53:39.068Z,101136.77
2023-05-11T03:54:00.796Z,101137.80
2023-05-11T03:54:23.032Z,101137.63
2023-05-11T03:54:45.127Z,101138.61
2023-05-11T03:55:07.285Z,101136.46
2023-05-11T03:55:29.174Z,101138.70
2023-05-11T03:55:52.222Z,101135.20
2023-05-11T03:56:14.769Z,101137.80
2023-05-11T03:56:37.801Z,101138.83
2023-05-11T03:56:59.484Z,101139.90
2023-05-11T03:57:21.684Z,101138.33
2023-05-11T03:57:43.634Z,101137.36
2023-05-11T03:58:08.616Z,101136.84
2023-05-11T03:58:30.852Z,101137.16
2023-05-11T03:58:53.776Z,101138.70
2023-05-11T03:59:15.812Z,101137.96
2023-05-11T03:59:40.122Z,101135.16
2023-05-11T04:00:01.979Z,101135.44
2023-05-11T04:00:25.980Z,101137.16
2023-05-11T04:00:48.030Z,101136.60
2023-05-11T04:01:10.188Z,101136.90
2023-05-11T04:01:32.084Z,101136.97
2023-05-11T04:01:54.029Z,101139.55
2023-05-11T04:02:15.644Z,101137.75
2023-05-11T04:02:37.343Z,101140.91
2023-05-11T04:03:02.057Z,101137.92
2023-05-11T04:03:24.180Z,101141.43
2023-05-11T04:03:50.010Z,101140.55
2023-05-11T04:04:12.263Z,101138.96
2023-05-11T04:04:34.495Z,101140.58
2023-05-11T04:04:56.024Z,101139.70
2023-05-11T04:05:18.692Z,101138.14
2023-05-11T04:05:40.946Z,101139.38
2023-05-11T04:06:04.866Z,101142.75
2023-05-11T04:06:26.466Z,101142.73
2023-05-11T04:06:58.198Z,101139.20
2023-05-11T04:07:20.832Z,101144.52
2023-05-11T04:07:42.581Z,101140.83
2023-05-11T04:08:04.470Z,101140.69
2023-05-11T04:08:26.355Z,101138.98
2023-05-11T04:08:48.191Z,101139.89
2023-05-11T04:09:09.928Z,101141.10
2023-05-11T04:09:31.509Z,101142.66
2023-05-11T04:09:53.086Z,101141.86
2023-05-11T04:10:14.704Z,101144.55
2023-05-11T04:10:37.777Z,101139.29
2023-05-11T04:10:59.561Z,101137.02
2023-05-11T04:11:21.658Z,101137.58
2023-05-11T04:11:43.750Z,101136.88
2023-05-11T04:12:05.643Z,101139.56
2023-05-11T04:12:27.418Z,101135.90
2023-05-11T04:12:49.046Z,101139.84
2023-05-11T04:13:10.781Z,101138.44
2023-05-11T04:13:32.469Z,101137.06
2023-05-11T04:13:54.110Z,101140.29
2023-05-11T04:14:17.096Z,101137.14
2023-05-11T04:14:38.634Z,101141.02
2023-05-11T04:15:00.383Z,101138.39
2023-05-11T04:15:22.021Z,101136.64
2023-05-11T04:15:43.803Z,101136.34
2023-05-11T04:16:05.897Z,101140.05
2023-05-11T04:16:27.643Z,101133.36
2023-05-11T04:16:49.754Z,101139.71
2023-05-11T04:17:11.534Z,101139.95
2023-05-11T04:17:33.314Z,101135.54
2023-05-11T04:17:55.364Z,101138.98
2023-05-11T04:18:17.270Z,101141.09
2023-05-11T04:18:38.966Z,101138.30
2023-05-11T04:19:01.477Z,101138.55
2023-05-11T04:19:23.474Z,101138.42
2023-05-11T04:19:45.156Z,101139.34
2023-05-11T04:20:08.084Z,101138.31
2023-05-11T04:20:30.465Z,101138.89
2023-05-11T04:20:52.243Z,101137.75
2023-05-11T04:21:14.028Z,101138.72
2023-05-11T04:21:36.814Z,101134.63
2023-05-11T04:21:58.512Z,101138.95
2023-05-11T04:22:20.608Z,101138.88
2023-05-11T04:22:42.701Z,101138.12
2023-05-11T04:23:04.382Z,101136.48
2023-05-11T04:23:26.476Z,101139.55
2023-05-11T04:23:48.168Z,101137.34
2023-05-11T04:24:09.822Z,101138.30
2023-05-11T04:24:31.416Z,101137.37